createdAt,value
2019-02-22T00:02:01.380Z,23.80
2019-02-22T00:04:30.652Z,22.37
2019-02-22T00:06:59.018Z,21.30
2019-02-22T00:09:28.869Z,24.43
2019-02-22T00:11:57.791Z,24.17
2019-02-22T00:14:26.445Z,19.83
2019-02-22T00:16:54.817Z,24.03
2019-02-22T00:19:23.498Z,24.90
2019-02-22T00:21:52.237Z,23.63
2019-02-22T00:24:20.648Z,23.30
2019-02-22T00:26:48.697Z,28.10
2019-02-22T00:29:17.688Z,26.17
2019-02-22T00:31:45.799Z,19.63
2019-02-22T00:34:14.102Z,25.47
2019-02-22T00:36:42.520Z,23.67
2019-02-22T00:39:10.835Z,24.17
2019-02-22T00:41:38.787Z,25.30
2019-02-22T00:44:07.067Z,27.50
2019-02-22T00:46:35.415Z,23.37
2019-02-22T00:49:03.771Z,25.80
2019-02-22T00:51:31.948Z,26.60
2019-02-22T00:54:00.013Z,23.67
2019-02-22T00:56:29.816Z,27.03
2019-02-22T00:58:58.617Z,25.03
2019-02-22T01:01:28.103Z,26.63
2019-02-22T01:03:56.477Z,27.33
2019-02-22T01:06:25.120Z,23.57
2019-02-22T01:08:54.010Z,23.63
2019-02-22T01:11:22.566Z,25.77
2019-02-22T01:13:51.813Z,22.07
2019-02-22T01:16:20.206Z,23.23
2019-02-22T01:18:48.798Z,24.07
2019-02-22T01:21:17.459Z,22.57
2019-02-22T01:23:47.612Z,23.93
2019-02-22T01:26:15.647Z,26.43
2019-02-22T01:28:44.398Z,24.57
2019-02-22T01:31:13.534Z,30.17
2019-02-22T01:33:41.636Z,21.73
2019-02-22T01:36:09.841Z,24.07
2019-02-22T01:38:38.579Z,21.10
2019-02-22T01:41:08.312Z,21.23
2019-02-22T01:43:36.367Z,22.60
2019-02-22T01:46:04.819Z,24.33
2019-02-22T01:48:33.997Z,23.90
2019-02-22T01:51:03.123Z,20.30
2019-02-22T01:53:31.942Z,23.53
2019-02-22T01:56:01.104Z,25.20
2019-02-22T01:58:30.555Z,23.97
2019-02-22T02:00:59.790Z,21.33
2019-02-22T02:03:28.958Z,19.67
2019-02-22T02:05:57.626Z,24.20
2019-02-22T02:08:25.786Z,24.87
2019-02-22T02:10:54.565Z,23.87
2019-02-22T02:13:24.017Z,25.00
2019-02-22T02:15:53.777Z,21.90
2019-02-22T02:18:21.818Z,22.73
2019-02-22T02:20:50.843Z,21.63
2019-02-22T02:23:19.339Z,23.20
2019-02-22T02:25:47.410Z,21.20
2019-02-22T02:28:16.661Z,23.50
2019-02-22T02:30:44.930Z,20.43
2019-02-22T02:33:14.177Z,24.07
2019-02-22T02:35:43.559Z,23.33
2019-02-22T02:38:12.451Z,24.17
2019-02-22T02:40:40.747Z,26.70
2019-02-22T02:43:09.610Z,22.17
2019-02-22T02:45:39.169Z,23.90
2019-02-22T02:48:08.091Z,26.23
2019-02-22T02:50:36.681Z,23.03
2019-02-22T02:53:04.999Z,23.60
2019-02-22T02:55:34.530Z,25.70
2019-02-22T02:58:02.671Z,23.07
2019-02-22T03:00:31.993Z,20.37
2019-02-22T03:03:00.708Z,21.33
2019-02-22T03:05:48.870Z,22.30
2019-02-22T03:08:17.548Z,25.33
2019-02-22T03:10:45.785Z,24.20
2019-02-22T03:13:13.853Z,24.00
2019-02-22T03:15:41.997Z,22.40
2019-02-22T03:18:10.095Z,24.27
2019-02-22T03:20:40.756Z,25.23
2019-02-22T03:23:09.458Z,25.17
2019-02-22T03:25:37.756Z,21.50
2019-02-22T03:28:06.868Z,21.33
2019-02-22T03:30:34.967Z,22.93
2019-02-22T03:33:03.287Z,22.63
2019-02-22T03:35:31.726Z,22.53
2019-02-22T03:38:01.354Z,23.77
2019-02-22T03:40:30.025Z,27.90
2019-02-22T03:42:58.104Z,26.27
2019-02-22T03:45:26.332Z,24.93
2019-02-22T03:47:54.517Z,25.50
2019-02-22T03:50:23.087Z,27.30
2019-02-22T03:52:55.032Z,27.50
2019-02-22T03:55:23.222Z,26.33
2019-02-22T03:57:52.571Z,26.87
2019-02-22T04:00:21.058Z,25.60
2019-02-22T04:02:50.485Z,22.73
2019-02-22T04:05:18.726Z,28.60
2019-02-22T04:07:46.957Z,25.10
2019-02-22T04:10:15.877Z,29.03
2019-02-22T04:12:44.390Z,30.43
2019-02-22T04:15:12.400Z,26.97
2019-02-22T04:17:40.486Z,29.67
2019-02-22T04:20:08.658Z,31.63
2019-02-22T04:22:37.704Z,31.93
2019-02-22T04:25:06.541Z,31.63
2019-02-22T04:27:35.246Z,35.63
2019-02-22T04:30:04.091Z,33.10
2019-02-22T04:32:32.591Z,36.00
2019-02-22T04:35:01.320Z,36.90
2019-02-22T04:37:30.260Z,39.13
2019-02-22T04:40:02.332Z,34.23
2019-02-22T04:42:30.269Z,34.43
2019-02-22T04:44:58.541Z,34.83
2019-02-22T04:47:28.245Z,34.47
2019-02-22T04:49:56.669Z,39.47
2019-02-22T04:52:27.180Z,39.23
2019-02-22T04:54:55.696Z,41.40
2019-02-22T04:57:24.282Z,43.53
2019-02-22T04:59:53.671Z,38.30
2019-02-22T05:02:21.706Z,38.43
2019-02-22T05:04:51.562Z,43.70
2019-02-22T05:07:20.441Z,40.20
2019-02-22T05:09:48.832Z,40.77
2019-02-22T05:12:17.962Z,41.10
2019-02-22T05:14:45.887Z,43.90
2019-02-22T05:17:15.379Z,43.80
2019-02-22T05:19:43.931Z,44.70
2019-02-22T05:22:11.970Z,43.10
2019-02-22T05:24:40.678Z,44.03
2019-02-22T05:27:09.484Z,39.77
2019-02-22T05:29:37.663Z,42.60
2019-02-22T05:32:07.320Z,38.20
2019-02-22T05:34:36.863Z,41.23
2019-02-22T05:37:06.294Z,42.80
2019-02-22T05:39:34.600Z,40.20
2019-02-22T05:42:02.794Z,38.70
2019-02-22T05:44:32.311Z,37.67
2019-02-22T05:47:00.880Z,38.63
2019-02-22T05:49:28.778Z,40.03
2019-02-22T05:51:57.632Z,44.57
2019-02-22T05:54:26.865Z,40.50
2019-02-22T05:56:55.407Z,40.63
2019-02-22T05:59:23.696Z,42.80
2019-02-22T06:01:53.124Z,46.27
2019-02-22T06:04:21.691Z,42.63
2019-02-22T06:06:50.152Z,47.97
2019-02-22T06:09:19.535Z,51.83
2019-02-22T06:11:49.056Z,53.07
2019-02-22T06:14:17.291Z,58.13
2019-02-22T06:16:46.431Z,55.40
2019-02-22T06:19:15.468Z,58.33
2019-02-22T06:21:43.785Z,62.67
2019-02-22T06:24:11.876Z,67.13
2019-02-22T06:26:40.569Z,66.03
2019-02-22T06:29:08.485Z,65.97
2019-02-22T06:31:36.864Z,70.50
2019-02-22T06:34:05.228Z,71.40
2019-02-22T06:36:34.033Z,76.10
2019-02-22T06:39:03.237Z,69.93
2019-02-22T06:41:31.268Z,78.27
2019-02-22T06:43:59.507Z,76.97
2019-02-22T06:46:28.109Z,74.67
2019-02-22T06:48:56.380Z,76.20
2019-02-22T06:51:24.735Z,71.90
2019-02-22T06:53:54.114Z,77.40
2019-02-22T06:56:24.284Z,70.83
2019-02-22T06:58:53.322Z,74.27
2019-02-22T07:01:21.354Z,71.53
2019-02-22T07:03:49.411Z,73.50
2019-02-22T07:06:18.183Z,68.50
2019-02-22T07:08:48.928Z,67.37
2019-02-22T07:11:44.186Z,69.10
2019-02-22T07:14:13.377Z,67.37
2019-02-22T07:16:41.604Z,75.83
2019-02-22T07:19:09.659Z,73.63
2019-02-22T07:21:51.639Z,75.03
2019-02-22T07:24:09.009Z,71.57
2019-02-22T07:26:38.820Z,69.40
2019-02-22T07:29:06.818Z,72.93
2019-02-22T07:31:36.834Z,70.63
2019-02-22T07:34:05.319Z,69.77
2019-02-22T07:36:33.812Z,65.60
2019-02-22T07:39:04.281Z,64.57
2019-02-22T07:41:33.371Z,64.83
2019-02-22T07:44:02.529Z,64.57
2019-02-22T07:46:30.552Z,64.67
2019-02-22T07:48:58.460Z,63.07
2019-02-22T07:51:26.645Z,65.47
2019-02-22T07:53:55.203Z,67.30
2019-02-22T07:56:23.835Z,58.17
2019-02-22T07:58:52.064Z,59.33
2019-02-22T08:01:21.459Z,55.83
2019-02-22T08:03:51.361Z,60.50
2019-02-22T08:06:19.565Z,54.93
2019-02-22T08:08:48.620Z,55.87
2019-02-22T08:11:16.723Z,59.43
2019-02-22T08:13:45.712Z,57.97
2019-02-22T08:16:14.564Z,53.27
2019-02-22T08:18:44.301Z,51.50
2019-02-22T08:21:12.669Z,54.70
2019-02-22T08:23:40.954Z,51.47
2019-02-22T08:26:09.585Z,49.70
2019-02-22T08:28:38.195Z,48.40
2019-02-22T08:31:07.198Z,48.47
2019-02-22T08:33:35.759Z,47.47
2019-02-22T08:36:03.945Z,46.40
2019-02-22T08:38:32.033Z,43.87
2019-02-22T08:41:01.935Z,40.60
2019-02-22T08:43:31.762Z,43.27
2019-02-22T08:46:01.283Z,40.57
2019-02-22T08:48:31.208Z,37.53
2019-02-22T08:50:59.299Z,41.07
2019-02-22T08:53:29.335Z,41.50
2019-02-22T08:55:58.460Z,41.23
2019-02-22T08:58:26.919Z,41.20
2019-02-22T09:00:55.565Z,39.03
2019-02-22T09:03:25.010Z,35.00
2019-02-22T09:05:53.896Z,39.17
2019-02-22T09:08:22.877Z,37.03
2019-02-22T09:11:00.130Z,34.67
2019-02-22T09:13:22.332Z,39.43
2019-02-22T09:15:51.824Z,37.30
2019-02-22T09:18:20.058Z,39.03
2019-02-22T09:20:48.104Z,38.27
2019-02-22T09:23:16.185Z,37.83
2019-02-22T09:25:44.905Z,38.83
2019-02-22T09:28:14.065Z,38.13
2019-02-22T09:30:42.768Z,39.50
2019-02-22T09:33:14.311Z,34.77
2019-02-22T09:35:43.310Z,38.10
2019-02-22T09:38:12.445Z,36.40
2019-02-22T09:40:41.821Z,38.20
2019-02-22T09:43:11.014Z,39.20
2019-02-22T09:45:39.690Z,38.10
2019-02-22T09:48:08.704Z,38.17
2019-02-22T09:50:38.252Z,36.13
2019-02-22T09:53:07.359Z,33.17
2019-02-22T09:55:37.386Z,35.17
2019-02-22T09:58:06.486Z,33.53
2019-02-22T10:00:35.580Z,34.17
2019-02-22T10:03:04.864Z,36.17
2019-02-22T10:05:33.035Z,34.40
2019-02-22T10:08:01.224Z,35.87
2019-02-22T10:10:29.441Z,34.77
2019-02-22T10:12:57.516Z,35.73
2019-02-22T10:15:25.605Z,23.00
2019-02-22T10:17:54.673Z,24.60
2019-02-22T10:20:23.710Z,23.07
2019-02-22T10:22:51.730Z,24.03
2019-02-22T10:25:20.450Z,24.77
2019-02-22T10:27:49.546Z,25.30
2019-02-22T10:30:18.494Z,24.97
2019-02-22T10:32:47.355Z,24.77
2019-02-22T10:35:16.067Z,25.03
2019-02-22T10:37:45.720Z,23.07
2019-02-22T10:40:14.686Z,23.53
2019-02-22T10:42:42.990Z,20.37
2019-02-22T10:45:11.308Z,21.77
2019-02-22T10:47:39.551Z,22.30
2019-02-22T10:50:08.016Z,19.97
2019-02-22T10:52:36.913Z,17.60
2019-02-22T10:55:05.924Z,18.10
2019-02-22T10:57:33.994Z,21.43
2019-02-22T11:00:02.438Z,21.13
2019-02-22T11:02:31.408Z,19.93
2019-02-22T11:04:59.696Z,19.33
2019-02-22T11:07:31.068Z,22.73
2019-02-22T11:10:00.885Z,20.40
2019-02-22T11:12:29.298Z,17.40
2019-02-22T11:14:57.980Z,13.63
2019-02-22T11:17:26.044Z,11.27
2019-02-22T11:19:54.254Z,13.73
2019-02-22T11:22:22.890Z,16.27
2019-02-22T11:24:51.866Z,14.40
2019-02-22T11:27:20.783Z,13.97
2019-02-22T11:29:53.112Z,10.80
2019-02-22T11:32:27.045Z,13.53
2019-02-22T11:34:55.715Z,11.43
2019-02-22T11:37:24.388Z,8.33
2019-02-22T11:39:53.376Z,6.60
2019-02-22T11:42:21.359Z,7.37
2019-02-22T11:44:49.419Z,6.30
2019-02-22T11:47:18.908Z,11.17
2019-02-22T11:49:47.231Z,12.93
2019-02-22T11:52:15.332Z,12.60
2019-02-22T11:54:45.834Z,12.97
2019-02-22T11:57:16.300Z,13.40
2019-02-22T11:59:49.570Z,12.73
2019-02-22T12:02:19.090Z,15.57
2019-02-22T12:04:47.931Z,17.17
2019-02-22T12:07:16.496Z,19.13
2019-02-22T12:09:45.273Z,18.83
2019-02-22T12:12:14.274Z,16.47
2019-02-22T12:14:51.082Z,17.13
2019-02-22T12:17:14.237Z,15.00
2019-02-22T12:19:42.305Z,11.23
2019-02-22T12:22:10.851Z,12.23
2019-02-22T12:24:39.050Z,15.17
2019-02-22T12:27:07.582Z,12.17
2019-02-22T12:29:37.139Z,13.33
2019-02-22T12:32:06.314Z,11.43
2019-02-22T12:34:34.929Z,11.63
2019-02-22T12:37:04.099Z,11.90
2019-02-22T12:39:33.367Z,11.27
2019-02-22T12:42:02.451Z,11.53
2019-02-22T12:44:32.475Z,13.63
2019-02-22T12:47:00.572Z,12.37
2019-02-22T12:49:28.888Z,8.10
2019-02-22T12:51:57.612Z,8.13
2019-02-22T12:54:26.208Z,8.47
2019-02-22T12:56:58.105Z,5.60
2019-02-22T12:59:26.317Z,7.40
2019-02-22T13:01:54.689Z,7.03
2019-02-22T13:04:22.769Z,9.03
2019-02-22T13:06:51.147Z,7.00
2019-02-22T13:09:19.910Z,12.57
2019-02-22T13:11:48.194Z,7.73
2019-02-22T13:14:16.470Z,9.00
2019-02-22T13:16:45.738Z,9.17
2019-02-22T13:19:13.922Z,6.50
2019-02-22T13:21:42.114Z,7.13
2019-02-22T13:24:10.178Z,6.60
2019-02-22T13:26:38.791Z,6.63
2019-02-22T13:29:08.114Z,7.57
2019-02-22T13:31:37.844Z,5.77
2019-02-22T13:34:06.842Z,8.47
2019-02-22T13:36:35.367Z,8.83
2019-02-22T13:39:04.783Z,8.63
2019-02-22T13:41:33.321Z,9.37
2019-02-22T13:44:01.678Z,9.37
2019-02-22T13:46:30.639Z,13.53
2019-02-22T13:48:59.051Z,10.47
2019-02-22T13:51:27.340Z,9.00
2019-02-22T13:53:55.541Z,9.03
2019-02-22T13:56:29.715Z,8.53
2019-02-22T13:58:55.587Z,8.37
2019-02-22T14:01:23.914Z,8.30
2019-02-22T14:03:52.803Z,8.97
2019-02-22T14:06:21.673Z,9.57
2019-02-22T14:08:50.994Z,8.30
2019-02-22T14:11:19.394Z,9.73
2019-02-22T14:13:47.740Z,8.83
2019-02-22T14:16:16.058Z,7.80
2019-02-22T14:18:47.586Z,6.90
2019-02-22T14:21:17.480Z,10.63
2019-02-22T14:23:46.188Z,8.67
2019-02-22T14:26:15.629Z,8.00
2019-02-22T14:28:44.755Z,8.40
2019-02-22T14:31:14.403Z,6.03
2019-02-22T14:33:42.980Z,7.23
2019-02-22T14:36:12.018Z,7.30
2019-02-22T14:38:40.261Z,11.90
2019-02-22T14:41:09.246Z,6.63
2019-02-22T14:43:37.498Z,7.50
2019-02-22T14:46:05.686Z,7.53
2019-02-22T14:48:34.854Z,5.37
2019-02-22T14:51:03.552Z,6.97
2019-02-22T14:53:32.202Z,9.77
2019-02-22T14:56:01.265Z,10.27
2019-02-22T14:58:31.419Z,8.67
2019-02-22T15:01:00.410Z,6.47
2019-02-22T15:03:28.725Z,7.03
2019-02-22T15:05:57.155Z,6.37
2019-02-22T15:08:25.635Z,6.63
2019-02-22T15:10:54.876Z,5.57
2019-02-22T15:13:23.529Z,6.73
2019-02-22T15:16:14.422Z,7.37
2019-02-22T15:18:42.956Z,7.27
2019-02-22T15:21:11.284Z,7.67
2019-02-22T15:23:40.514Z,6.57
2019-02-22T15:26:09.208Z,7.73
2019-02-22T15:28:38.000Z,7.23
2019-02-22T15:31:06.295Z,6.73
2019-02-22T15:33:35.652Z,6.63
2019-02-22T15:36:04.956Z,5.10
2019-02-22T15:38:34.787Z,4.17
2019-02-22T15:41:03.460Z,5.30
2019-02-22T15:43:33.023Z,5.13
2019-02-22T15:46:11.518Z,4.87
2019-02-22T15:48:32.121Z,6.40
2019-02-22T15:51:00.742Z,5.80
2019-02-22T15:53:29.939Z,5.43
2019-02-22T15:55:59.603Z,7.63
2019-02-22T15:58:28.675Z,5.30
2019-02-22T16:00:57.289Z,4.97
2019-02-22T16:03:48.229Z,4.97
2019-02-22T16:06:16.570Z,4.30
2019-02-22T16:08:44.893Z,4.20
2019-02-22T16:11:13.690Z,5.17
2019-02-22T16:13:42.624Z,6.17
2019-02-22T16:16:22.979Z,5.03
2019-02-22T16:18:46.192Z,4.30
2019-02-22T16:21:14.606Z,5.40
2019-02-22T16:23:44.042Z,4.77
2019-02-22T16:26:14.753Z,4.17
2019-02-22T16:28:43.151Z,5.03
2019-02-22T16:31:11.735Z,5.60
2019-02-22T16:33:40.908Z,6.10
2019-02-22T16:36:09.755Z,4.63
2019-02-22T16:38:38.990Z,6.97
2019-02-22T16:41:07.583Z,4.77
2019-02-22T16:43:35.970Z,5.43
2019-02-22T16:46:04.902Z,5.30
2019-02-22T16:48:33.069Z,5.40
2019-02-22T16:51:01.449Z,4.87
2019-02-22T16:53:30.748Z,4.27
2019-02-22T16:55:59.994Z,6.67
2019-02-22T16:58:30.820Z,3.93
2019-02-22T17:01:00.485Z,4.47
2019-02-22T17:03:28.559Z,5.33
2019-02-22T17:05:57.069Z,6.43
2019-02-22T17:08:26.773Z,5.13
2019-02-22T17:10:55.451Z,5.47
2019-02-22T17:13:23.735Z,5.33
2019-02-22T17:15:53.022Z,4.17
2019-02-22T17:18:21.988Z,6.23
2019-02-22T17:20:50.529Z,5.00
2019-02-22T17:23:18.796Z,5.47
2019-02-22T17:25:47.046Z,4.30
2019-02-22T17:28:15.161Z,5.33
2019-02-22T17:30:43.466Z,4.67
2019-02-22T17:33:11.741Z,4.27
2019-02-22T17:35:39.748Z,13.30
2019-02-22T17:38:07.825Z,17.80
2019-02-22T17:40:36.432Z,8.80
2019-02-22T17:43:05.271Z,7.10
2019-02-22T17:45:33.831Z,71.47
2019-02-22T17:48:02.530Z,160.33
2019-02-22T17:50:31.061Z,247.87
2019-02-22T17:53:00.510Z,65.57
2019-02-22T17:55:28.997Z,10.00
2019-02-22T17:57:56.922Z,9.60
2019-02-22T18:00:25.323Z,7.10
2019-02-22T18:02:54.197Z,7.83
2019-02-22T18:05:22.360Z,6.80
2019-02-22T18:07:50.750Z,8.83
2019-02-22T18:10:19.020Z,8.47
2019-02-22T18:12:47.155Z,10.80
2019-02-22T18:15:15.260Z,12.93
2019-02-22T18:17:43.783Z,8.97
2019-02-22T18:20:12.623Z,7.80
2019-02-22T18:22:41.654Z,8.37
2019-02-22T18:25:09.979Z,5.97
2019-02-22T18:27:38.234Z,5.83
2019-02-22T18:30:09.180Z,7.77
2019-02-22T18:32:37.965Z,6.93
2019-02-22T18:35:07.213Z,9.27
2019-02-22T18:37:36.134Z,9.50
2019-02-22T18:40:07.347Z,7.93
2019-02-22T18:42:35.874Z,9.30
2019-02-22T18:45:04.048Z,9.03
2019-02-22T18:47:32.377Z,7.20
2019-02-22T18:50:01.573Z,12.63
2019-02-22T18:52:29.536Z,11.23
2019-02-22T18:54:57.503Z,9.33
2019-02-22T18:57:25.885Z,11.40
2019-02-22T18:59:54.758Z,8.07
2019-02-22T19:02:23.012Z,7.80
2019-02-22T19:04:52.043Z,11.17
2019-02-22T19:07:20.392Z,24.47
2019-02-22T19:09:48.920Z,86.73
2019-02-22T19:12:17.406Z,105.93
2019-02-22T19:14:49.033Z,18.83
2019-02-22T19:17:17.432Z,15.77
2019-02-22T19:19:45.686Z,15.40
2019-02-22T19:22:13.600Z,7.40
2019-02-22T19:24:41.907Z,10.13
2019-02-22T19:27:10.235Z,7.27
2019-02-22T19:29:40.949Z,9.20
2019-02-22T19:32:10.606Z,7.83
2019-02-22T19:34:40.629Z,8.97
2019-02-22T19:37:09.176Z,7.87
2019-02-22T19:39:37.990Z,7.17
2019-02-22T19:42:06.746Z,9.53
2019-02-22T19:44:35.546Z,9.63
2019-02-22T19:47:03.972Z,8.87
2019-02-22T19:49:33.029Z,8.13
2019-02-22T19:52:02.771Z,8.80
2019-02-22T19:54:32.390Z,8.07
2019-02-22T19:57:00.589Z,8.83
2019-02-22T19:59:29.253Z,12.33
2019-02-22T20:01:58.338Z,9.67
2019-02-22T20:04:26.803Z,10.70
2019-02-22T20:06:55.503Z,33.57
2019-02-22T20:09:23.640Z,26.27
2019-02-22T20:11:52.230Z,22.03
2019-02-22T20:14:21.432Z,20.53
2019-02-22T20:16:49.604Z,17.53
2019-02-22T20:19:19.719Z,16.33
2019-02-22T20:21:48.100Z,14.87
2019-02-22T20:24:17.373Z,16.27
2019-02-22T20:26:46.408Z,11.27
2019-02-22T20:29:14.496Z,14.70
2019-02-22T20:31:43.887Z,13.90
2019-02-22T20:34:13.183Z,16.10
2019-02-22T20:36:44.059Z,14.17
2019-02-22T20:39:13.257Z,14.50
2019-02-22T20:41:41.655Z,13.97
2019-02-22T20:44:09.953Z,12.07
2019-02-22T20:46:38.775Z,13.07
2019-02-22T20:49:08.324Z,13.53
2019-02-22T20:51:38.722Z,17.57
2019-02-22T20:54:07.223Z,16.20
2019-02-22T20:56:36.623Z,16.50
2019-02-22T20:59:07.832Z,14.30
2019-02-22T21:01:37.631Z,16.37
2019-02-22T21:04:05.727Z,14.10
2019-02-22T21:06:33.896Z,16.10
2019-02-22T21:09:02.441Z,15.33
2019-02-22T21:11:30.630Z,17.77
2019-02-22T21:13:58.764Z,15.27
2019-02-22T21:16:27.410Z,14.57
2019-02-22T21:18:56.724Z,17.87
2019-02-22T21:21:24.824Z,15.50
2019-02-22T21:23:52.881Z,13.23
2019-02-22T21:26:21.297Z,19.73
2019-02-22T21:28:49.337Z,19.57
2019-02-22T21:31:18.386Z,17.53
2019-02-22T21:33:48.216Z,40.47
2019-02-22T21:36:16.253Z,22.10
2019-02-22T21:38:45.114Z,22.63
2019-02-22T21:41:16.181Z,16.93
2019-02-22T21:43:43.539Z,16.10
2019-02-22T21:46:11.843Z,15.33
2019-02-22T21:48:40.478Z,16.37
2019-02-22T21:51:09.486Z,13.30
2019-02-22T21:53:37.568Z,14.07
2019-02-22T21:56:05.954Z,16.67
2019-02-22T21:58:34.275Z,16.53
2019-02-22T22:01:05.699Z,19.07
2019-02-22T22:03:34.933Z,17.30
2019-02-22T22:06:03.485Z,16.37
2019-02-22T22:08:34.310Z,16.73
2019-02-22T22:11:04.641Z,14.93
2019-02-22T22:13:33.344Z,16.27
2019-02-22T22:16:02.740Z,19.20
2019-02-22T22:18:38.899Z,16.63
2019-02-22T22:21:10.766Z,18.17
2019-02-22T22:23:39.885Z,16.63
2019-02-22T22:26:10.304Z,15.60
2019-02-22T22:28:38.531Z,21.30
2019-02-22T22:31:07.492Z,18.73
2019-02-22T22:33:36.571Z,19.13
2019-02-22T22:36:05.302Z,20.57
2019-02-22T22:38:35.010Z,18.73
2019-02-22T22:41:03.982Z,19.60
2019-02-22T22:43:32.076Z,17.67
2019-02-22T22:46:00.852Z,15.63
2019-02-22T22:48:29.575Z,16.57
2019-02-22T22:50:58.535Z,17.50
2019-02-22T22:53:26.548Z,17.47
2019-02-22T22:55:54.888Z,15.77
2019-02-22T22:58:23.849Z,16.53
2019-02-22T23:01:13.308Z,15.70
2019-02-22T23:03:42.088Z,16.47
2019-02-22T23:06:12.401Z,13.70
2019-02-22T23:08:42.787Z,18.83
2019-02-22T23:11:11.748Z,18.80
2019-02-22T23:13:41.153Z,15.27
2019-02-22T23:16:10.817Z,13.37
2019-02-22T23:18:40.324Z,13.47
2019-02-22T23:21:10.981Z,15.70
2019-02-22T23:23:39.926Z,14.33
2019-02-22T23:26:08.300Z,15.97
2019-02-22T23:28:37.354Z,18.57
2019-02-22T23:31:07.378Z,16.40
2019-02-22T23:33:37.115Z,22.90
2019-02-22T23:36:07.391Z,22.30
2019-02-22T23:38:36.678Z,18.77
2019-02-22T23:41:05.938Z,18.30
2019-02-22T23:43:35.309Z,18.83
2019-02-22T23:46:07.654Z,18.40
2019-02-22T23:48:36.264Z,16.90
2019-02-22T23:51:06.320Z,23.27
2019-02-22T23:53:34.682Z,20.03
2019-02-22T23:56:05.700Z,25.03
2019-02-22T23:58:34.330Z,23.60
